Time;durP1;ratioP1;P1;durP2;ratioP2;P2;SDS_P1;SDS_P2;PMS_P1;PMS_P2;Temp;Humidity;BMP_temperature;BMP_pressure;BME280_temperature;BME280_humidity;BME280_pressure;Samples;Min_cycle;Max_cycle;Signal;HPM_P1;HPM_P2
2022/09/19 00:00:35;;;;;;;2.22;0.60;;;10.80;99.90;;;;;;5056178;28;19904;-68
2022/09/19 00:03:02;;;;;;;1.80;0.40;;;10.70;99.90;;;;;;5056238;28;20021;-68
2022/09/19 00:05:27;;;;;;;1.73;0.60;;;10.70;99.90;;;;;;5056202;28;20389;-68
2022/09/19 00:07:53;;;;;;;0.50;0.40;;;10.80;99.90;;;;;;5054404;28;20028;-68
2022/09/19 00:10:18;;;;;;;1.60;0.50;;;10.90;99.90;;;;;;5055250;28;20063;-68
2022/09/19 00:12:44;;;;;;;4.13;0.53;;;10.80;99.90;;;;;;5055766;28;20029;-68
2022/09/19 00:15:09;;;;;;;0.93;0.60;;;10.70;99.90;;;;;;5055748;28;20024;-68
2022/09/19 00:17:35;;;;;;;1.48;0.40;;;10.60;99.90;;;;;;5056315;28;20359;-68
2022/09/19 00:20:01;;;;;;;0.83;0.50;;;10.50;99.90;;;;;;5055824;28;20063;-68
2022/09/19 00:22:26;;;;;;;1.73;0.63;;;10.50;99.90;;;;;;5055909;28;20143;-68
2022/09/19 00:24:52;;;;;;;3.70;0.40;;;10.60;99.90;;;;;;5055868;28;20033;-68
2022/09/19 00:27:22;;;;;;;0.63;0.37;;;10.60;99.90;;;;;;5056260;28;20029;-67
2022/09/19 00:29:48;;;;;;;0.85;0.52;;;10.60;99.90;;;;;;5056058;28;20040;-66
2022/09/19 00:32:15;;;;;;;0.88;0.40;;;10.60;99.90;;;;;;5055574;28;20036;-66
2022/09/19 00:34:43;;;;;;;3.03;0.50;;;10.60;99.90;;;;;;5055406;28;20025;-66
2022/09/19 00:37:09;;;;;;;1.30;0.30;;;10.70;99.90;;;;;;5055379;28;20033;-67
2022/09/19 00:39:34;;;;;;;0.63;0.40;;;10.60;99.90;;;;;;5055359;28;20062;-67
2022/09/19 00:42:00;;;;;;;1.33;0.40;;;10.60;99.90;;;;;;5055198;28;20032;-67
2022/09/19 00:44:26;;;;;;;1.38;0.45;;;10.70;99.90;;;;;;5055149;28;20028;-67
2022/09/19 00:46:59;;;;;;;1.33;0.60;;;10.60;99.90;;;;;;5055147;28;20021;-67
2022/09/19 00:49:27;;;;;;;0.45;0.40;;;10.60;99.90;;;;;;5055094;28;20021;-66
2022/09/19 00:52:00;;;;;;;2.05;0.40;;;10.50;99.90;;;;;;5053650;28;20043;-67
2022/09/19 00:54:33;;;;;;;0.60;0.50;;;10.40;99.90;;;;;;5054913;28;20025;-67
2022/09/19 00:57:00;;;;;;;0.85;0.40;;;10.50;99.90;;;;;;5054400;28;20040;-67
2022/09/19 00:59:29;;;;;;;1.98;0.43;;;10.50;99.90;;;;;;5054821;28;20021;-67
2022/09/19 01:01:56;;;;;;;1.05;0.60;;;10.50;99.90;;;;;;5054944;28;20103;-66
2022/09/19 01:04:24;;;;;;;1.58;0.47;;;10.50;99.90;;;;;;5055012;28;20053;-66
2022/09/19 01:07:00;;;;;;;0.77;0.40;;;10.50;99.90;;;;;;5054781;28;20469;-66
2022/09/19 01:09:38;;;;;;;1.02;0.50;;;10.60;99.90;;;;;;5054732;28;20041;-66
2022/09/19 01:12:06;;;;;;;2.03;0.43;;;10.50;99.90;;;;;;5054941;28;20017;-66
2022/09/19 01:14:55;;;;;;;0.80;0.43;;;10.40;99.90;;;;;;5054935;28;20122;-67
2022/09/19 01:17:28;;;;;;;1.35;0.50;;;10.30;99.90;;;;;;5054633;28;20070;-66
2022/09/19 01:19:59;;;;;;;2.83;0.57;;;10.30;99.90;;;;;;5054934;28;20083;-66
2022/09/19 01:22:44;;;;;;;1.00;0.60;;;10.30;99.90;;;;;;5054674;28;20025;-66
2022/09/19 01:25:31;;;;;;;1.88;1.00;;;10.20;99.90;;;;;;5055518;28;20090;-66
2022/09/19 01:28:08;;;;;;;2.03;0.73;;;10.20;99.90;;;;;;5053649;28;20032;-66
2022/09/19 01:30:36;;;;;;;1.45;1.10;;;10.10;99.90;;;;;;5055575;28;20287;-66
2022/09/19 01:33:17;;;;;;;2.03;0.70;;;10.00;99.90;;;;;;5055806;28;20100;-66
2022/09/19 01:35:47;;;;;;;1.13;0.73;;;10.00;99.90;;;;;;5055736;28;20017;-68
2022/09/19 01:38:21;;;;;;;2.22;0.75;;;10.00;99.90;;;;;;5055617;28;20021;-66
2022/09/19 01:40:48;;;;;;;1.45;0.80;;;9.90;99.90;;;;;;5055761;28;20025;-66
2022/09/19 01:43:16;;;;;;;1.85;0.75;;;10.00;99.90;;;;;;5055798;28;20020;-65
2022/09/19 01:45:43;;;;;;;2.10;0.40;;;9.90;99.90;;;;;;5055000;28;20025;-65
2022/09/19 01:48:44;;;;;;;1.13;0.47;;;10.00;99.90;;;;;;5054572;28;20082;-65
2022/09/19 01:51:26;;;;;;;0.70;0.50;;;10.10;99.90;;;;;;5031850;28;20037;-66
2022/09/19 01:54:21;;;;;;;2.53;0.50;;;10.10;99.90;;;;;;5031909;28;20056;-65
2022/09/19 01:57:04;;;;;;;1.55;0.50;;;10.00;99.90;;;;;;5031743;28;20052;-65
2022/09/19 01:59:47;;;;;;;1.85;0.60;;;10.00;99.90;;;;;;5032991;28;20096;-66
2022/09/19 02:02:28;;;;;;;1.35;0.60;;;9.90;99.90;;;;;;5032269;28;20069;-65
2022/09/19 02:05:01;;;;;;;1.63;0.60;;;10.00;99.90;;;;;;5032072;28;20025;-65
2022/09/19 02:07:42;;;;;;;1.45;0.60;;;10.10;99.90;;;;;;5031826;28;20072;-65
2022/09/19 02:10:14;;;;;;;3.80;0.50;;;10.10;99.90;;;;;;5031537;28;20107;-65
2022/09/19 02:12:43;;;;;;;2.80;0.63;;;10.20;99.90;;;;;;5031454;28;20033;-65
2022/09/19 02:15:12;;;;;;;3.28;0.88;;;10.30;99.90;;;;;;5031426;28;20056;-65
2022/09/19 02:17:50;;;;;;;2.25;0.43;;;10.30;99.90;;;;;;5031090;28;20045;-65
2022/09/19 02:20:24;;;;;;;3.55;0.60;;;10.20;99.90;;;;;;5031284;28;20457;-65
2022/09/19 02:22:54;;;;;;;0.77;0.40;;;10.00;99.90;;;;;;5014624;28;20025;-65
2022/09/19 02:25:24;;;;;;;1.92;0.95;;;10.20;99.90;;;;;;5031191;28;20037;-65
2022/09/19 02:27:55;;;;;;;1.30;0.60;;;10.20;99.90;;;;;;5052964;28;20040;-65
2022/09/19 02:30:21;;;;;;;0.40;0.32;;;10.30;99.90;;;;;;5053314;28;20096;-65
2022/09/19 02:32:49;;;;;;;1.83;0.50;;;10.20;99.90;;;;;;5052964;28;20056;-65
2022/09/19 02:35:39;;;;;;;2.03;0.57;;;10.40;99.90;;;;;;5051743;28;20033;-65
2022/09/19 02:38:14;;;;;;;2.58;0.50;;;10.30;99.90;;;;;;5053219;28;20017;-65
2022/09/19 02:40:48;;;;;;;1.23;0.70;;;10.30;99.90;;;;;;5053289;28;20048;-65
2022/09/19 02:43:38;;;;;;;2.90;0.82;;;10.10;99.90;;;;;;5053150;28;20044;-65
2022/09/19 02:46:20;;;;;;;3.33;0.60;;;10.10;99.90;;;;;;5053040;28;20021;-64
2022/09/19 02:49:05;;;;;;;0.70;0.43;;;10.00;99.90;;;;;;5052765;28;20017;-64
2022/09/19 02:51:50;;;;;;;0.93;0.50;;;9.90;99.90;;;;;;5052863;28;20456;-65
2022/09/19 02:54:23;;;;;;;1.58;0.60;;;9.80;99.90;;;;;;5053210;28;20119;-65
2022/09/19 02:56:50;;;;;;;2.70;1.52;;;9.80;99.90;;;;;;5053133;28;20075;-64
2022/09/19 02:59:28;;;;;;;1.42;0.63;;;9.70;99.90;;;;;;5052863;28;20029;-64
2022/09/19 03:02:00;;;;;;;2.90;0.80;;;9.70;99.90;;;;;;5053139;28;20104;-64
2022/09/19 03:04:32;;;;;;;1.40;0.60;;;9.70;99.90;;;;;;5053188;28;20021;-64
2022/09/19 03:07:14;;;;;;;2.20;0.90;;;9.70;99.90;;;;;;5052806;28;20024;-64
2022/09/19 03:09:47;;;;;;;2.47;0.88;;;9.80;99.90;;;;;;5051370;28;20121;-65
2022/09/19 03:12:20;;;;;;;3.97;1.33;;;9.70;99.90;;;;;;5052949;28;20025;-65
2022/09/19 03:14:48;;;;;;;2.90;0.77;;;9.70;99.90;;;;;;5053300;28;20017;-64
2022/09/19 03:17:16;;;;;;;2.03;0.90;;;9.70;99.90;;;;;;5052716;28;20013;-64
2022/09/19 03:19:47;;;;;;;2.15;1.02;;;9.80;99.90;;;;;;5053820;28;20025;-64
2022/09/19 03:22:12;;;;;;;2.88;0.85;;;9.80;99.90;;;;;;5056538;28;20025;-64
2022/09/19 03:24:38;;;;;;;1.33;0.70;;;9.80;99.90;;;;;;5056809;28;20422;-64
2022/09/19 03:27:04;;;;;;;3.33;0.80;;;9.90;99.90;;;;;;5056451;28;20155;-64
2022/09/19 03:29:30;;;;;;;3.47;0.80;;;9.80;99.90;;;;;;5056711;28;20119;-65
2022/09/19 03:31:56;;;;;;;2.47;0.90;;;9.70;99.90;;;;;;5056697;28;20029;-64
2022/09/19 03:34:22;;;;;;;5.65;1.08;;;9.80;99.90;;;;;;5056881;28;20473;-64
2022/09/19 03:36:48;;;;;;;1.95;0.70;;;9.90;99.90;;;;;;5056660;28;20029;-64
2022/09/19 03:39:13;;;;;;;2.30;0.80;;;9.90;99.90;;;;;;5056425;28;20100;-65
2022/09/19 03:41:39;;;;;;;2.30;0.98;;;9.90;99.90;;;;;;5056202;28;20086;-65
2022/09/19 03:44:05;;;;;;;4.47;0.73;;;10.00;99.90;;;;;;5056912;28;20028;-65
2022/09/19 03:46:31;;;;;;;2.05;0.80;;;10.00;99.90;;;;;;5056513;28;20103;-65
2022/09/19 03:49:00;;;;;;;1.40;0.85;;;9.90;99.90;;;;;;5056002;28;20039;-65
2022/09/19 03:51:26;;;;;;;5.05;0.80;;;9.90;99.90;;;;;;5056382;28;20327;-65
2022/09/19 03:53:51;;;;;;;2.20;0.88;;;10.00;99.90;;;;;;5056198;28;20044;-65
2022/09/19 03:56:17;;;;;;;1.80;1.27;;;9.90;99.90;;;;;;5056094;28;20056;-65
2022/09/19 03:58:43;;;;;;;2.25;1.00;;;9.90;99.90;;;;;;5056006;28;20060;-64
2022/09/19 04:01:10;;;;;;;2.30;0.65;;;9.80;99.90;;;;;;5055884;28;20033;-65
2022/09/19 04:03:37;;;;;;;3.85;1.00;;;9.80;99.90;;;;;;5054808;28;20550;-64
2022/09/19 04:06:04;;;;;;;3.95;0.90;;;9.70;99.90;;;;;;5056979;28;20025;-64
2022/09/19 04:08:30;;;;;;;;;;;9.80;99.90;;;;;;5056460;28;20056;-64
2022/09/19 04:10:56;;;;;;;3.38;0.80;;;9.70;99.90;;;;;;5055874;28;20295;-64
2022/09/19 04:13:22;;;;;;;1.70;0.90;;;9.70;99.90;;;;;;5055791;28;20021;-65
2022/09/19 04:15:51;;;;;;;2.47;1.27;;;9.70;99.90;;;;;;5055616;28;20363;-64
2022/09/19 04:18:18;;;;;;;3.38;1.45;;;9.70;99.90;;;;;;5054339;28;20492;-64
2022/09/19 04:20:47;;;;;;;2.17;0.85;;;9.80;99.90;;;;;;5055642;28;20029;-64
2022/09/19 04:23:16;;;;;;;2.60;0.90;;;9.80;99.90;;;;;;5055941;28;20017;-65
2022/09/19 04:25:43;;;;;;;3.33;1.20;;;9.80;99.90;;;;;;5055732;28;20013;-65
2022/09/19 04:28:11;;;;;;;2.55;1.20;;;9.80;99.90;;;;;;5055805;28;20108;-65
2022/09/19 04:30:40;;;;;;;2.25;1.25;;;9.90;99.90;;;;;;5055414;28;20458;-66
2022/09/19 04:33:11;;;;;;;2.88;1.02;;;9.80;99.90;;;;;;5054833;28;20359;-65
2022/09/19 04:35:37;;;;;;;1.45;1.02;;;9.80;99.90;;;;;;5056313;28;20529;-64
2022/09/19 04:38:17;;;;;;;3.20;1.13;;;9.80;99.90;;;;;;5055442;28;20422;-64
2022/09/19 04:40:46;;;;;;;2.95;1.17;;;9.70;99.90;;;;;;5056327;28;20036;-64
2022/09/19 04:43:15;;;;;;;3.47;1.10;;;9.90;99.90;;;;;;5056211;28;20021;-64
2022/09/19 04:45:40;;;;;;;4.70;1.20;;;10.00;99.90;;;;;;5055249;28;20021;-64
2022/09/19 04:48:06;;;;;;;1.93;0.93;;;10.00;99.90;;;;;;5055003;28;20541;-64
2022/09/19 04:50:36;;;;;;;3.53;1.23;;;10.00;99.90;;;;;;5055605;28;20021;-64
2022/09/19 04:53:02;;;;;;;3.72;1.80;;;10.00;99.90;;;;;;5055397;28;20068;-65
2022/09/19 04:55:28;;;;;;;4.70;1.20;;;10.10;99.90;;;;;;5053860;28;20029;-66
2022/09/19 04:57:55;;;;;;;4.85;1.00;;;10.00;99.90;;;;;;5054960;28;20467;-66
2022/09/19 05:00:38;;;;;;;4.50;1.30;;;10.00;99.90;;;;;;5055226;28;20021;-65
2022/09/19 05:03:07;;;;;;;1.77;1.00;;;10.00;99.90;;;;;;5055151;28;20470;-66
2022/09/19 05:05:36;;;;;;;3.28;1.17;;;10.00;99.90;;;;;;5053543;28;20043;-65
2022/09/19 05:08:04;;;;;;;3.20;1.33;;;10.10;99.90;;;;;;5053704;28;20021;-64
2022/09/19 05:10:33;;;;;;;6.20;1.70;;;10.10;99.90;;;;;;5054997;28;20032;-62
2022/09/19 05:12:59;;;;;;;3.00;1.50;;;10.10;99.90;;;;;;5054676;28;20017;-62
2022/09/19 05:15:25;;;;;;;4.93;1.00;;;10.10;99.90;;;;;;5053381;28;20017;-62
2022/09/19 05:17:55;;;;;;;3.97;1.37;;;10.10;99.90;;;;;;5054887;28;20052;-62
2022/09/19 05:20:25;;;;;;;4.35;1.38;;;10.10;99.90;;;;;;5054461;28;20021;-61
2022/09/19 05:22:58;;;;;;;3.05;1.23;;;10.20;99.90;;;;;;5054429;28;20082;-61
2022/09/19 05:25:25;;;;;;;2.90;0.88;;;10.30;99.90;;;;;;5052420;28;20025;-62
2022/09/19 05:27:51;;;;;;;;;;;10.30;99.90;;;;;;5054139;28;20036;-64
2022/09/19 05:30:16;;;;;;;3.25;1.10;;;10.30;99.90;;;;;;5054118;28;19905;-62
2022/09/19 05:32:44;;;;;;;2.73;1.07;;;10.40;99.90;;;;;;5054251;28;20029;-63
2022/09/19 05:35:11;;;;;;;2.28;0.93;;;10.40;99.90;;;;;;5054500;28;20032;-61
2022/09/19 05:37:39;;;;;;;3.75;1.20;;;10.50;99.90;;;;;;5055690;28;20473;-60
2022/09/19 05:40:06;;;;;;;4.38;1.08;;;10.50;99.90;;;;;;5055322;28;20028;-62
2022/09/19 05:42:31;;;;;;;6.40;1.50;;;10.50;99.90;;;;;;5055173;28;20107;-61
2022/09/19 05:44:57;;;;;;;4.53;1.20;;;10.50;99.90;;;;;;5056151;28;20083;-61
2022/09/19 05:47:22;;;;;;;3.83;1.37;;;10.50;99.90;;;;;;5054872;28;20155;-60
2022/09/19 05:49:48;;;;;;;7.70;2.07;;;10.40;99.90;;;;;;5055748;28;20053;-60
2022/09/19 05:54:58;;;;;;;4.38;1.38;;;10.40;99.90;;;;;;5054120;28;20092;-61
2022/09/19 05:57:23;;;;;;;4.23;1.30;;;10.50;99.90;;;;;;5053796;28;20033;-61
2022/09/19 05:59:49;;;;;;;5.77;1.50;;;10.50;99.90;;;;;;5053704;28;20032;-62
2022/09/19 06:02:14;;;;;;;4.77;1.53;;;10.50;99.90;;;;;;5051406;28;20033;-60
2022/09/19 06:04:40;;;;;;;4.60;1.50;;;10.60;99.90;;;;;;5053239;28;20464;-60
2022/09/19 06:07:06;;;;;;;4.37;1.23;;;10.60;99.90;;;;;;5054515;28;20024;-60
2022/09/19 06:09:31;;;;;;;4.35;0.90;;;10.70;99.90;;;;;;5054245;28;20040;-64
2022/09/19 06:11:57;;;;;;;4.13;1.23;;;10.70;99.90;;;;;;5052259;28;20167;-64
2022/09/19 06:14:23;;;;;;;5.53;1.53;;;10.80;99.90;;;;;;5053404;28;20134;-64
2022/09/19 06:16:49;;;;;;;3.25;1.40;;;10.90;99.90;;;;;;5053162;28;20021;-63
2022/09/19 06:19:15;;;;;;;6.53;1.70;;;11.10;99.90;;;;;;5053136;28;20501;-63
2022/09/19 06:21:40;;;;;;;3.30;1.23;;;11.10;99.90;;;;;;5053539;28;20117;-64
2022/09/19 06:24:09;;;;;;;5.77;1.40;;;11.10;99.90;;;;;;5053332;28;20024;-64
2022/09/19 06:26:35;;;;;;;5.50;1.33;;;11.10;99.90;;;;;;5053539;28;20029;-63
2022/09/19 06:29:01;;;;;;;4.27;1.20;;;11.10;99.90;;;;;;5053162;28;20035;-64
2022/09/19 06:31:27;;;;;;;3.20;1.10;;;11.10;99.90;;;;;;5051994;28;20025;-64
2022/09/19 06:33:53;;;;;;;5.40;1.30;;;11.20;99.90;;;;;;5052938;28;20039;-64
2022/09/19 06:36:19;;;;;;;3.00;1.30;;;11.20;99.90;;;;;;5052898;28;20095;-64
2022/09/19 06:38:45;;;;;;;5.05;1.80;;;11.40;99.90;;;;;;5052707;28;20031;-63
2022/09/19 06:41:11;;;;;;;3.03;1.13;;;11.50;99.90;;;;;;5053162;28;20029;-64
2022/09/19 06:43:36;;;;;;;5.75;1.30;;;11.50;99.90;;;;;;5052602;28;20149;-64
2022/09/19 06:46:03;;;;;;;4.70;1.87;;;11.60;99.90;;;;;;5052617;28;20443;-64
2022/09/19 06:48:28;;;;;;;3.10;1.30;;;11.50;99.90;;;;;;5052891;28;20025;-63
2022/09/19 06:50:54;;;;;;;5.93;1.33;;;11.60;99.90;;;;;;5052962;28;20037;-64
2022/09/19 06:53:19;;;;;;;6.07;1.30;;;11.80;99.90;;;;;;5052741;28;20478;-65
2022/09/19 06:55:45;;;;;;;3.30;1.30;;;11.90;99.90;;;;;;5052190;28;20027;-61
2022/09/19 06:58:12;;;;;;;5.23;1.57;;;12.00;99.90;;;;;;5053050;28;20025;-63
2022/09/19 07:00:38;;;;;;;8.20;1.77;;;12.10;99.90;;;;;;5053058;28;20342;-64
2022/09/19 07:03:10;;;;;;;5.35;1.23;;;12.30;99.90;;;;;;5051223;28;20543;-64
2022/09/19 07:05:37;;;;;;;4.05;1.20;;;12.30;99.90;;;;;;5052862;28;20119;-64
2022/09/19 07:08:04;;;;;;;5.40;1.90;;;12.30;99.90;;;;;;5052472;28;20024;-65
2022/09/19 07:10:29;;;;;;;;;;;12.30;99.90;;;;;;5053220;28;20021;-64
2022/09/19 07:13:01;;;;;;;9.18;2.55;;;12.30;99.90;;;;;;5052457;28;20403;-64
2022/09/19 07:15:28;;;;;;;6.65;1.50;;;12.30;99.90;;;;;;5052924;28;20071;-64
2022/09/19 07:17:57;;;;;;;7.30;1.42;;;12.20;99.90;;;;;;5051146;28;20025;-65
2022/09/19 07:20:24;;;;;;;5.63;1.58;;;12.30;99.90;;;;;;5052656;28;20482;-64
2022/09/19 07:23:13;;;;;;;3.65;1.13;;;12.20;99.90;;;;;;5053154;28;20032;-64
2022/09/19 07:25:40;;;;;;;6.35;1.60;;;12.30;99.90;;;;;;5053720;28;20410;-64
2022/09/19 07:28:09;;;;;;;4.82;1.20;;;12.20;99.90;;;;;;5053455;28;20040;-64
2022/09/19 07:30:35;;;;;;;4.90;1.42;;;12.20;99.90;;;;;;5053417;28;20028;-65
2022/09/19 07:33:03;;;;;;;4.60;1.40;;;12.30;99.90;;;;;;5052716;28;20151;-64
2022/09/19 07:35:32;;;;;;;5.22;1.58;;;12.40;99.90;;;;;;5052793;28;20497;-64
2022/09/19 07:37:58;;;;;;;7.13;1.63;;;12.50;99.90;;;;;;5052555;28;20028;-64
2022/09/19 07:40:23;;;;;;;5.60;1.50;;;12.60;99.90;;;;;;5052782;28;20021;-64
2022/09/19 07:42:51;;;;;;;8.25;3.33;;;12.80;99.90;;;;;;5052980;28;20032;-64
2022/09/19 07:45:17;;;;;;;5.18;2.05;;;12.90;99.90;;;;;;5053147;28;20059;-66
2022/09/19 07:47:47;;;;;;;5.70;1.55;;;12.90;99.90;;;;;;5052885;28;20029;-64
2022/09/19 07:50:16;;;;;;;4.40;1.52;;;12.80;99.90;;;;;;5053138;28;20543;-64
2022/09/19 07:52:45;;;;;;;4.10;1.88;;;12.90;99.90;;;;;;5052554;28;20029;-63
2022/09/19 07:55:11;;;;;;;6.47;2.22;;;12.80;99.90;;;;;;5052387;28;20420;-63
2022/09/19 07:57:36;;;;;;;7.90;1.80;;;12.70;99.90;;;;;;5052859;28;20025;-64
2022/09/19 08:00:03;;;;;;;4.72;1.35;;;12.70;99.90;;;;;;5052358;28;20021;-63
2022/09/19 08:02:29;;;;;;;6.25;1.48;;;12.80;99.90;;;;;;5052253;28;20116;-64
2022/09/19 08:04:54;;;;;;;5.67;1.80;;;13.00;99.90;;;;;;5052397;28;20113;-64
2022/09/19 08:07:20;;;;;;;6.07;1.30;;;13.10;99.90;;;;;;5053834;28;20029;-63
2022/09/19 08:09:45;;;;;;;4.83;1.27;;;13.20;99.90;;;;;;5055642;28;20045;-64
2022/09/19 08:12:11;;;;;;;8.83;1.60;;;13.40;99.90;;;;;;5055952;28;20029;-63
2022/09/19 08:14:37;;;;;;;6.22;1.80;;;13.50;99.90;;;;;;5056060;28;20450;-64
2022/09/19 08:17:03;;;;;;;3.85;1.13;;;13.50;99.90;;;;;;5055645;28;20116;-64
2022/09/19 08:19:28;;;;;;;8.20;1.27;;;13.60;99.90;;;;;;5056275;28;20044;-64
2022/09/19 08:21:56;;;;;;;5.88;1.67;;;13.60;99.90;;;;;;5055369;28;20029;-65
2022/09/19 08:24:22;;;;;;;9.13;1.85;;;13.50;99.90;;;;;;5055672;28;20466;-63
2022/09/19 08:26:48;;;;;;;8.27;2.50;;;13.50;99.90;;;;;;5055448;28;20095;-65
2022/09/19 08:29:13;;;;;;;5.55;1.50;;;13.30;99.90;;;;;;5055110;28;20466;-65
2022/09/19 08:31:39;;;;;;;8.70;2.67;;;13.30;99.90;;;;;;5055222;28;20436;-64
2022/09/19 08:34:05;;;;;;;9.20;1.90;;;13.20;99.90;;;;;;5055372;28;20041;-63
2022/09/19 08:36:33;;;;;;;4.50;1.13;;;13.20;99.90;;;;;;5055402;28;20033;-63
2022/09/19 08:38:58;;;;;;;9.50;2.15;;;13.10;99.90;;;;;;5055137;28;20098;-65
2022/09/19 08:41:40;;;;;;;5.73;1.20;;;13.10;99.90;;;;;;5055105;28;20470;-65
2022/09/19 08:44:30;;;;;;;6.68;1.30;;;13.30;99.90;;;;;;5055163;28;20508;-66
2022/09/19 08:47:01;;;;;;;7.65;2.25;;;13.40;99.90;;;;;;5045055;28;20402;-64
2022/09/19 08:49:33;;;;;;;7.90;1.40;;;13.50;99.90;;;;;;5055259;28;20025;-63
2022/09/19 08:52:12;;;;;;;5.22;1.48;;;13.70;99.90;;;;;;5054869;28;20036;-64
2022/09/19 08:54:41;;;;;;;9.35;1.30;;;13.70;99.90;;;;;;5055179;28;20025;-64
2022/09/19 08:57:27;;;;;;;4.85;1.52;;;13.80;99.90;;;;;;5055213;28;20078;-64
2022/09/19 08:59:58;;;;;;;7.22;1.48;;;14.10;99.90;;;;;;5053331;28;20017;-64
2022/09/19 09:02:26;;;;;;;6.05;1.35;;;14.40;99.90;;;;;;5054794;28;20073;-64
2022/09/19 09:04:54;;;;;;;7.15;2.15;;;14.60;99.90;;;;;;5054505;28;20104;-64
2022/09/19 09:07:37;;;;;;;7.20;1.95;;;14.70;99.90;;;;;;5054607;28;20024;-64
2022/09/19 09:10:30;;;;;;;10.18;2.40;;;14.60;99.90;;;;;;5054719;28;20044;-64
2022/09/19 09:13:15;;;;;;;6.03;1.48;;;14.40;99.90;;;;;;5054817;28;20079;-64
2022/09/19 09:15:59;;;;;;;7.57;1.42;;;14.10;99.90;;;;;;5055085;28;20036;-64
2022/09/19 09:18:56;;;;;;;7.88;1.98;;;14.20;99.90;;;;;;5054751;28;20032;-64
2022/09/19 09:21:40;;;;;;;6.97;1.70;;;14.00;99.90;;;;;;5055409;28;20120;-64
2022/09/19 09:24:14;;;;;;;6.60;1.52;;;13.70;99.90;;;;;;5055210;28;20029;-65
2022/09/19 09:26:44;;;;;;;7.57;1.30;;;14.00;99.90;;;;;;5055336;28;20110;-64
2022/09/19 09:29:32;;;;;;;8.73;1.98;;;14.20;99.90;;;;;;5054766;28;20029;-65
2022/09/19 09:32:43;;;;;;;9.52;1.50;;;14.40;99.90;;;;;;5054527;28;20056;-64
2022/09/19 09:35:27;;;;;;;3.35;1.13;;;14.60;99.90;;;;;;5053059;28;20363;-64
2022/09/19 09:38:04;;;;;;;7.75;1.90;;;14.70;99.90;;;;;;5054783;28;20017;-64
2022/09/19 09:43:50;;;;;;;7.35;1.65;;;15.50;99.90;;;;;;5054775;28;20378;-64
2022/09/19 09:46:25;;;;;;;4.28;1.27;;;15.60;99.90;;;;;;5054292;28;20021;-64
2022/09/19 09:48:52;;;;;;;9.23;2.10;;;15.50;99.90;;;;;;5054372;28;20055;-63
2022/09/19 09:51:59;;;;;;;4.43;1.45;;;15.50;99.90;;;;;;5054344;28;20025;-64
2022/09/19 09:57:49;;;;;;;7.35;1.40;;;15.30;99.90;;;;;;5053731;28;20087;-64
2022/09/19 10:03:34;;;;;;;10.48;1.85;;;15.00;99.90;;;;;;5054117;28;20102;-65
2022/09/19 10:06:09;;;;;;;7.80;1.40;;;15.50;99.90;;;;;;5054433;28;20071;-64
2022/09/19 10:08:56;;;;;;;8.07;1.83;;;15.80;99.90;;;;;;5053803;28;20039;-64
2022/09/19 10:11:31;;;;;;;8.75;1.58;;;15.80;99.90;;;;;;5053767;28;20100;-64
2022/09/19 10:14:04;;;;;;;7.30;1.60;;;15.80;99.90;;;;;;5053753;28;20017;-64
2022/09/19 10:16:32;;;;;;;10.63;1.50;;;15.70;99.90;;;;;;5053522;28;20382;-64
2022/09/19 10:19:16;;;;;;;9.75;1.40;;;15.80;99.90;;;;;;5053835;28;20021;-64
2022/09/19 10:21:41;;;;;;;9.68;1.65;;;15.80;99.90;;;;;;5053956;28;20101;-64
2022/09/19 10:24:41;;;;;;;8.47;1.33;;;16.00;99.90;;;;;;5053923;28;20613;-64
2022/09/19 10:27:14;;;;;;;7.15;2.15;;;16.00;99.90;;;;;;5053286;28;20098;-63
2022/09/19 10:29:58;;;;;;;8.27;1.50;;;16.00;99.90;;;;;;5052422;28;20053;-65
2022/09/19 10:32:36;;;;;;;7.53;1.70;;;15.90;99.90;;;;;;5053268;28;20021;-64
2022/09/19 10:35:28;;;;;;;9.65;2.38;;;16.10;99.90;;;;;;5053301;28;20474;-63
2022/09/19 10:37:59;;;;;;;8.48;1.67;;;17.00;99.90;;;;;;5053059;28;20035;-65
2022/09/19 10:40:26;;;;;;;4.95;1.30;;;18.50;99.90;;;;;;5053052;28;20474;-64
2022/09/19 10:42:54;;;;;;;9.32;1.70;;;19.30;99.90;;;;;;5052931;28;20357;-64
2022/09/19 10:45:25;;;;;;;9.30;1.75;;;19.60;99.90;;;;;;5051470;28;20025;-65
2022/09/19 10:47:55;;;;;;;7.28;1.48;;;19.60;99.90;;;;;;5052918;28;20469;-64
2022/09/19 10:50:21;;;;;;;6.20;1.45;;;20.70;99.90;;;;;;5051437;28;20025;-64
2022/09/19 10:52:48;;;;;;;;;;;21.90;97.60;;;;;;5053310;28;20029;-64
2022/09/19 10:55:20;;;;;;;10.10;1.40;;;21.60;97.00;;;;;;5052827;28;19905;-64
2022/09/19 10:58:16;;;;;;;7.38;1.17;;;20.80;97.30;;;;;;5052752;28;20025;-64
2022/09/19 11:00:48;;;;;;;6.03;1.63;;;19.60;99.00;;;;;;5051923;28;20029;-65
2022/09/19 11:03:30;;;;;;;4.30;1.63;;;18.80;99.90;;;;;;5052601;28;20021;-64
2022/09/19 11:06:07;;;;;;;5.78;1.45;;;18.30;99.90;;;;;;5052639;28;20490;-64
2022/09/19 11:08:44;;;;;;;6.55;1.63;;;17.90;99.90;;;;;;5052448;28;20028;-64
2022/09/19 11:11:37;;;;;;;4.65;1.52;;;17.70;99.90;;;;;;5051158;28;20029;-64
2022/09/19 11:14:17;;;;;;;6.35;1.58;;;17.70;99.90;;;;;;5052501;28;20021;-64
2022/09/19 11:17:01;;;;;;;6.65;1.35;;;17.70;99.90;;;;;;5052835;28;20404;-64
2022/09/19 11:19:52;;;;;;;7.55;1.40;;;17.70;99.90;;;;;;5052854;28;20059;-64
2022/09/19 11:23:03;;;;;;;5.43;1.40;;;17.50;99.90;;;;;;5052197;28;20064;-64
2022/09/19 11:25:32;;;;;;;6.05;1.83;;;17.40;99.90;;;;;;5052757;28;20496;-64
2022/09/19 11:28:10;;;;;;;8.80;1.58;;;17.50;99.90;;;;;;5052091;28;20033;-64
2022/09/19 11:30:50;;;;;;;5.32;1.42;;;17.60;99.90;;;;;;5051178;28;20025;-64
2022/09/19 11:33:55;;;;;;;5.85;1.30;;;17.60;99.90;;;;;;5052293;28;20104;-63
2022/09/19 11:36:55;;;;;;;5.85;1.20;;;17.60;99.90;;;;;;5013660;28;20104;-66
2022/09/19 11:39:38;;;;;;;6.78;1.65;;;17.70;99.90;;;;;;5030174;28;20040;-63
2022/09/19 11:42:28;;;;;;;5.22;1.38;;;17.50;99.90;;;;;;5033759;28;20051;-64
2022/09/19 11:45:15;;;;;;;8.02;2.00;;;17.70;99.90;;;;;;5033858;28;20044;-64
2022/09/19 11:47:41;;;;;;;5.13;1.10;;;17.70;99.90;;;;;;5017238;28;20030;-64
2022/09/19 11:50:29;;;;;;;6.95;1.60;;;17.90;99.90;;;;;;5017239;28;20088;-63
2022/09/19 11:53:31;;;;;;;10.43;1.90;;;17.70;99.90;;;;;;5033935;28;20042;-65
2022/09/19 11:56:00;;;;;;;5.95;1.33;;;17.80;99.90;;;;;;5017204;28;20037;-64
2022/09/19 11:58:53;;;;;;;4.00;1.30;;;17.50;99.90;;;;;;5033682;28;20038;-64
2022/09/19 12:01:43;;;;;;;8.20;1.60;;;17.60;99.90;;;;;;5016885;28;20025;-64
2022/09/19 12:04:33;;;;;;;9.18;1.70;;;17.40;99.90;;;;;;5033837;28;20037;-64
2022/09/19 12:07:26;;;;;;;6.32;1.42;;;17.40;99.90;;;;;;5033623;28;20395;-63
2022/09/19 12:10:13;;;;;;;6.45;1.25;;;17.30;99.90;;;;;;5034368;28;20049;-60
2022/09/19 12:12:43;;;;;;;5.07;1.40;;;17.50;99.90;;;;;;5051709;28;20040;-61
2022/09/19 12:15:22;;;;;;;5.95;1.25;;;17.60;99.90;;;;;;5055905;28;20108;-61
2022/09/19 12:18:11;;;;;;;6.20;1.25;;;17.60;99.90;;;;;;5055849;28;20032;-59
2022/09/19 12:20:45;;;;;;;5.68;1.02;;;17.90;99.90;;;;;;5051550;28;20077;-61
2022/09/19 12:26:16;;;;;;;8.98;1.67;;;17.90;99.90;;;;;;5055334;28;20075;-62
2022/09/19 12:29:00;;;;;;;4.25;1.40;;;17.80;99.90;;;;;;5053752;28;20104;-61
2022/09/19 12:31:33;;;;;;;4.88;1.02;;;18.00;99.90;;;;;;5053736;28;20025;-60
2022/09/19 12:34:14;;;;;;;4.45;1.33;;;18.10;99.90;;;;;;5055610;28;20025;-61
2022/09/19 12:36:52;;;;;;;4.82;1.13;;;18.10;99.90;;;;;;5055310;28;20025;-60
2022/09/19 12:39:34;;;;;;;4.10;1.05;;;18.10;99.90;;;;;;5055019;28;20104;-61
2022/09/19 12:42:08;;;;;;;4.88;1.30;;;17.80;99.90;;;;;;5055293;28;20492;-61
2022/09/19 12:44:40;;;;;;;5.70;1.10;;;17.80;99.90;;;;;;5055754;28;20431;-61
2022/09/19 12:47:31;;;;;;;4.40;1.33;;;17.90;99.90;;;;;;5055605;28;20044;-62
2022/09/19 12:50:21;;;;;;;7.57;1.45;;;17.80;99.90;;;;;;5055034;28;20036;-62
2022/09/19 12:53:14;;;;;;;5.43;1.60;;;17.60;99.90;;;;;;5054155;28;20025;-63
2022/09/19 12:56:00;;;;;;;4.18;1.33;;;17.50;99.90;;;;;;5055265;28;20092;-63
2022/09/19 12:58:44;;;;;;;6.20;1.52;;;17.50;99.90;;;;;;5054608;28;20048;-62
2022/09/19 13:01:23;;;;;;;9.05;4.18;;;17.70;99.90;;;;;;5054850;28;20386;-63
2022/09/19 13:04:08;;;;;;;5.30;1.10;;;17.70;99.90;;;;;;5054755;28;20024;-63
2022/09/19 13:06:39;;;;;;;5.32;1.10;;;17.50;99.90;;;;;;5054421;28;20498;-64
2022/09/19 13:09:15;;;;;;;8.20;1.45;;;17.30;99.90;;;;;;5054124;28;20413;-62
2022/09/19 13:11:46;;;;;;;3.13;0.98;;;17.40;99.90;;;;;;5054642;28;20170;-63
2022/09/19 13:14:30;;;;;;;4.88;1.30;;;17.30;99.90;;;;;;5054323;28;20024;-62
2022/09/19 13:25:38;;;;;;;4.97;1.25;;;17.60;99.90;;;;;;5053785;28;20241;-64
2022/09/19 13:28:19;;;;;;;5.47;1.30;;;17.40;99.90;;;;;;5053869;28;20025;-63
2022/09/19 13:30:57;;;;;;;3.80;1.23;;;17.40;99.90;;;;;;5053910;28;20024;-62
2022/09/19 13:33:34;;;;;;;2.40;1.08;;;17.10;99.90;;;;;;5054040;28;20382;-63
2022/09/19 13:36:08;;;;;;;3.28;1.10;;;16.90;99.90;;;;;;5054035;28;20021;-63
2022/09/19 13:38:45;;;;;;;5.45;1.42;;;16.80;99.90;;;;;;5053736;28;20029;-63
2022/09/19 13:41:28;;;;;;;4.70;0.90;;;16.80;99.90;;;;;;5054000;28;20100;-63